createdAt,value
2022-10-05T00:01:46.979Z,3.90
2022-10-05T00:04:58.717Z,4.90
2022-10-05T00:08:15.014Z,4.03
2022-10-05T00:11:21.532Z,6.22
2022-10-05T00:14:30.963Z,5.72
2022-10-05T00:17:42.773Z,4.15
2022-10-05T00:20:51.577Z,3.92
2022-10-05T00:23:59.675Z,4.18
2022-10-05T00:27:17.760Z,3.88
2022-10-05T00:30:26.028Z,4.00
2022-10-05T00:33:32.948Z,4.22
2022-10-05T00:36:43.934Z,4.68
2022-10-05T00:39:51.797Z,4.25
2022-10-05T00:43:15.345Z,3.72
2022-10-05T00:46:32.608Z,4.20
2022-10-05T00:50:00.158Z,4.18
2022-10-05T00:53:19.195Z,4.50
2022-10-05T00:56:58.910Z,4.35
2022-10-05T01:00:09.969Z,3.90
2022-10-05T01:03:24.529Z,4.00
2022-10-05T01:06:52.072Z,4.68
2022-10-05T01:10:07.075Z,4.57
2022-10-05T01:13:24.446Z,3.83
2022-10-05T01:16:54.010Z,4.25
2022-10-05T01:20:20.663Z,4.20
2022-10-05T01:24:05.701Z,4.47
2022-10-05T01:27:33.933Z,4.57
2022-10-05T01:30:48.904Z,4.80
2022-10-05T01:34:10.566Z,4.15
2022-10-05T01:37:38.891Z,4.68
2022-10-05T01:40:55.516Z,4.47
2022-10-05T01:44:12.107Z,4.93
2022-10-05T01:47:26.790Z,4.78
2022-10-05T01:50:47.276Z,5.00
2022-10-05T01:54:04.506Z,5.10
2022-10-05T01:57:23.240Z,4.70
2022-10-05T02:00:33.668Z,5.15
2022-10-05T02:03:46.057Z,5.13
2022-10-05T02:06:57.689Z,5.47
2022-10-05T02:10:11.164Z,5.10
2022-10-05T02:13:25.317Z,5.93
2022-10-05T02:16:39.849Z,5.13
2022-10-05T02:19:49.952Z,5.00
2022-10-05T02:23:01.367Z,4.70
2022-10-05T02:26:12.042Z,5.13
2022-10-05T02:29:25.609Z,4.35
2022-10-05T02:32:39.612Z,4.45
2022-10-05T02:35:49.514Z,5.00
2022-10-05T02:39:05.472Z,5.65
2022-10-05T02:42:22.018Z,5.30
2022-10-05T02:45:41.652Z,4.53
2022-10-05T02:49:02.765Z,4.95
2022-10-05T02:52:15.121Z,5.15
2022-10-05T02:55:32.497Z,5.28
2022-10-05T02:58:46.757Z,5.35
2022-10-05T03:02:00.756Z,5.32
2022-10-05T03:05:20.857Z,4.93
2022-10-05T03:08:35.009Z,5.32
2022-10-05T03:11:50.792Z,5.93
2022-10-05T03:15:11.384Z,4.63
2022-10-05T03:18:30.757Z,4.85
2022-10-05T03:21:54.144Z,6.18
2022-10-05T03:25:27.029Z,5.05
2022-10-05T03:28:45.788Z,4.90
2022-10-05T03:32:01.659Z,5.32
2022-10-05T03:35:14.303Z,5.30
2022-10-05T03:38:30.030Z,5.30
2022-10-05T03:41:43.841Z,5.15
2022-10-05T03:44:56.852Z,5.63
2022-10-05T03:48:09.523Z,5.03
2022-10-05T03:51:25.217Z,5.28
2022-10-05T03:54:45.850Z,5.53
2022-10-05T03:57:55.718Z,5.50
2022-10-05T04:01:06.638Z,5.03
2022-10-05T04:04:22.185Z,5.20
2022-10-05T04:07:43.523Z,5.15
2022-10-05T04:10:55.357Z,5.07
2022-10-05T04:14:11.329Z,4.68
2022-10-05T04:17:22.902Z,5.80
2022-10-05T04:20:37.212Z,5.72
2022-10-05T04:23:54.606Z,5.65
2022-10-05T04:27:09.779Z,5.47
2022-10-05T04:30:22.131Z,5.95
2022-10-05T04:33:33.062Z,5.30
2022-10-05T04:36:46.800Z,5.55
2022-10-05T04:40:08.409Z,5.82
2022-10-05T04:43:26.314Z,6.65
2022-10-05T04:46:49.393Z,6.07
2022-10-05T04:50:20.602Z,6.05
2022-10-05T04:53:37.400Z,5.68
2022-10-05T04:56:51.510Z,6.80
2022-10-05T05:00:10.133Z,6.47
2022-10-05T05:04:04.697Z,5.97
2022-10-05T05:07:27.319Z,6.18
2022-10-05T05:10:57.071Z,7.35
2022-10-05T05:14:29.519Z,6.50
2022-10-05T05:17:52.446Z,5.55
2022-10-05T05:21:06.454Z,6.07
2022-10-05T05:24:24.643Z,6.28
2022-10-05T05:27:44.138Z,6.32
2022-10-05T05:30:57.785Z,6.50
2022-10-05T05:34:22.617Z,6.88
2022-10-05T05:37:36.107Z,7.07
2022-10-05T05:40:54.124Z,6.68
2022-10-05T05:44:12.288Z,7.13
2022-10-05T05:47:26.925Z,6.63
2022-10-05T05:50:41.595Z,7.05
2022-10-05T05:53:54.906Z,6.70
2022-10-05T05:57:11.757Z,7.07
2022-10-05T06:00:24.306Z,6.50
2022-10-05T06:03:43.736Z,6.38
2022-10-05T06:06:52.209Z,6.63
2022-10-05T06:10:02.765Z,6.80
2022-10-05T06:13:20.242Z,6.88
2022-10-05T06:16:31.168Z,7.20
2022-10-05T06:19:40.210Z,6.63
2022-10-05T06:22:55.887Z,8.02
2022-10-05T06:26:16.157Z,7.72
2022-10-05T06:29:40.957Z,7.25
2022-10-05T06:33:08.998Z,7.35
2022-10-05T06:36:30.502Z,7.22
2022-10-05T06:40:00.079Z,8.10
2022-10-05T06:43:21.603Z,7.50
2022-10-05T06:46:32.888Z,7.90
2022-10-05T06:49:50.713Z,7.70
2022-10-05T06:53:09.724Z,8.68
2022-10-05T06:56:23.661Z,7.70
2022-10-05T06:59:39.753Z,7.10
2022-10-05T07:02:57.374Z,8.45
2022-10-05T07:06:10.375Z,7.78
2022-10-05T07:09:32.351Z,8.50
2022-10-05T07:12:51.869Z,8.02
2022-10-05T07:16:08.099Z,7.60
2022-10-05T07:19:31.894Z,7.85
2022-10-05T07:23:03.425Z,8.10
2022-10-05T07:26:18.627Z,7.60
2022-10-05T07:29:33.502Z,7.32
2022-10-05T07:32:48.372Z,7.30
2022-10-05T07:36:21.795Z,7.70
2022-10-05T07:39:59.051Z,6.85
2022-10-05T07:43:16.967Z,6.57
2022-10-05T07:46:33.012Z,7.22
2022-10-05T07:49:46.694Z,7.20
2022-10-05T07:52:57.843Z,6.97
2022-10-05T07:56:11.121Z,6.80
2022-10-05T07:59:27.502Z,7.00
2022-10-05T08:02:44.447Z,6.78
2022-10-05T08:05:52.536Z,6.80
2022-10-05T08:09:06.083Z,5.88
2022-10-05T08:12:29.639Z,7.22
2022-10-05T08:15:42.729Z,6.15
2022-10-05T08:18:57.852Z,6.00
2022-10-05T08:22:09.121Z,6.30
2022-10-05T08:25:25.586Z,6.63
2022-10-05T08:28:37.579Z,6.13
2022-10-05T08:31:48.974Z,6.93
2022-10-05T08:35:02.892Z,6.88
2022-10-05T08:38:14.776Z,6.90
2022-10-05T08:42:00.745Z,6.55
2022-10-05T08:46:29.248Z,7.57
2022-10-05T08:50:05.760Z,7.05
2022-10-05T08:53:25.008Z,7.68
2022-10-05T08:56:41.548Z,7.10
2022-10-05T09:00:04.528Z,6.60
2022-10-05T09:03:22.836Z,6.32
2022-10-05T09:06:51.939Z,7.22
2022-10-05T09:10:50.366Z,6.20
2022-10-05T09:14:17.087Z,6.75
2022-10-05T09:17:35.864Z,6.88
2022-10-05T09:20:52.761Z,6.20
2022-10-05T09:24:11.952Z,6.15
2022-10-05T09:27:25.954Z,5.88
2022-10-05T09:30:49.580Z,6.30
2022-10-05T09:34:21.629Z,5.82
2022-10-05T09:38:10.014Z,6.72
2022-10-05T09:41:39.327Z,6.10
2022-10-05T09:45:21.134Z,6.75
2022-10-05T09:49:10.951Z,6.55
2022-10-05T09:52:42.478Z,6.70
2022-10-05T09:56:21.648Z,6.30
2022-10-05T09:59:52.630Z,6.63
2022-10-05T10:03:22.086Z,6.43
2022-10-05T10:07:16.361Z,6.05
2022-10-05T10:10:55.076Z,5.97
2022-10-05T10:14:20.992Z,5.80
2022-10-05T10:17:56.514Z,6.10
2022-10-05T10:21:23.773Z,5.75
2022-10-05T10:24:52.122Z,5.30
2022-10-05T10:28:17.952Z,5.57
2022-10-05T10:31:50.397Z,4.75
2022-10-05T10:35:23.201Z,5.53
2022-10-05T10:38:40.190Z,5.65
2022-10-05T10:42:04.497Z,5.78
2022-10-05T10:45:28.622Z,5.07
2022-10-05T10:49:12.801Z,5.93
2022-10-05T10:52:38.913Z,5.20
2022-10-05T10:56:02.522Z,4.82
2022-10-05T10:59:51.896Z,4.70
2022-10-05T11:03:40.543Z,4.75
2022-10-05T11:07:21.041Z,4.65
2022-10-05T11:11:03.320Z,5.35
2022-10-05T11:14:34.719Z,5.22
2022-10-05T11:18:07.436Z,5.05
2022-10-05T11:21:40.213Z,5.15
2022-10-05T11:25:02.860Z,4.93
2022-10-05T11:28:51.282Z,5.13
2022-10-05T11:32:35.282Z,4.55
2022-10-05T11:36:04.160Z,4.57
2022-10-05T11:39:38.730Z,4.60
2022-10-05T11:43:11.986Z,4.50
2022-10-05T11:46:28.429Z,4.50
2022-10-05T11:49:41.401Z,4.13
2022-10-05T11:52:55.090Z,4.35
2022-10-05T11:56:17.641Z,4.70
2022-10-05T11:59:34.445Z,3.55
2022-10-05T12:03:12.449Z,4.22
2022-10-05T12:06:31.973Z,4.05
2022-10-05T12:10:05.115Z,4.65
2022-10-05T12:13:26.215Z,3.92
2022-10-05T12:16:41.834Z,3.50
2022-10-05T12:19:59.164Z,3.28
2022-10-05T12:23:16.137Z,3.08
2022-10-05T12:26:27.364Z,2.95
2022-10-05T12:29:42.993Z,3.25
2022-10-05T12:33:02.514Z,3.17
2022-10-05T12:36:15.084Z,3.25
2022-10-05T12:39:31.334Z,2.80
2022-10-05T12:42:45.978Z,3.13
2022-10-05T12:46:05.485Z,3.38
2022-10-05T12:49:35.707Z,2.92
2022-10-05T12:52:57.020Z,2.85
2022-10-05T12:56:12.006Z,2.95
2022-10-05T12:59:35.942Z,2.83
2022-10-05T13:02:46.527Z,3.45
2022-10-05T13:06:04.306Z,3.00
2022-10-05T13:09:20.758Z,2.90
2022-10-05T13:12:40.644Z,3.20
2022-10-05T13:15:52.173Z,2.92
2022-10-05T13:19:16.570Z,3.08
2022-10-05T13:22:34.647Z,3.30
2022-10-05T13:25:52.003Z,3.08
2022-10-05T13:29:13.920Z,2.78
2022-10-05T13:32:25.647Z,2.70
2022-10-05T13:35:44.279Z,2.80
2022-10-05T13:38:59.426Z,2.75
2022-10-05T13:42:12.222Z,2.75
2022-10-05T13:45:22.942Z,2.75
2022-10-05T13:48:50.377Z,2.65
2022-10-05T13:52:07.583Z,2.28
2022-10-05T13:55:32.613Z,2.72
2022-10-05T13:58:48.092Z,2.70
2022-10-05T14:02:02.147Z,2.72
2022-10-05T14:05:18.612Z,3.25
2022-10-05T14:08:33.471Z,3.03
2022-10-05T14:11:50.033Z,2.75
2022-10-05T14:14:58.343Z,2.55
2022-10-05T14:18:25.306Z,2.83
2022-10-05T14:21:32.516Z,2.90
2022-10-05T14:24:49.652Z,2.72
2022-10-05T14:28:04.606Z,2.72
2022-10-05T14:31:16.561Z,2.83
2022-10-05T14:34:36.588Z,2.45
2022-10-05T14:37:52.105Z,2.97
2022-10-05T14:41:22.487Z,2.83
2022-10-05T14:47:52.109Z,3.22
2022-10-05T14:51:03.439Z,2.58
2022-10-05T14:54:42.122Z,2.50
2022-10-05T14:58:06.337Z,2.55
2022-10-05T15:01:31.047Z,2.47
2022-10-05T15:04:44.779Z,2.92
2022-10-05T15:08:01.644Z,2.60
2022-10-05T15:11:13.684Z,2.28
2022-10-05T15:14:25.187Z,2.33
2022-10-05T15:17:42.768Z,2.53
2022-10-05T15:20:56.127Z,2.33
2022-10-05T15:24:07.154Z,2.25
2022-10-05T15:27:29.850Z,2.42
2022-10-05T15:30:50.687Z,2.70
2022-10-05T15:34:02.754Z,2.17
2022-10-05T15:37:18.047Z,2.45
2022-10-05T15:40:33.487Z,2.40
2022-10-05T15:43:50.970Z,2.17
2022-10-05T15:47:07.817Z,2.20
2022-10-05T15:50:22.585Z,2.72
2022-10-05T15:53:39.167Z,3.05
2022-10-05T15:56:57.359Z,2.30
2022-10-05T16:00:11.201Z,2.80
2022-10-05T16:03:26.683Z,2.15
2022-10-05T16:07:00.643Z,2.53
2022-10-05T16:10:16.825Z,2.65
2022-10-05T16:13:37.526Z,2.92
2022-10-05T16:16:58.570Z,2.88
2022-10-05T16:20:21.290Z,2.58
2022-10-05T16:23:41.664Z,2.60
2022-10-05T16:27:01.074Z,2.38
2022-10-05T16:30:13.583Z,2.85
2022-10-05T16:33:29.277Z,3.03
2022-10-05T16:36:48.904Z,2.58
2022-10-05T16:40:00.500Z,2.90
2022-10-05T16:43:19.909Z,2.65
2022-10-05T16:46:36.655Z,2.45
2022-10-05T16:49:47.228Z,3.08
2022-10-05T16:52:58.785Z,3.15
2022-10-05T16:56:12.585Z,3.75
2022-10-05T16:59:54.346Z,3.70
2022-10-05T17:03:21.536Z,3.22
2022-10-05T17:06:47.962Z,2.88
2022-10-05T17:10:09.088Z,3.03
2022-10-05T17:13:55.088Z,3.15
2022-10-05T17:17:29.812Z,3.15
2022-10-05T17:21:02.492Z,3.13
2022-10-05T17:24:30.255Z,3.40
2022-10-05T17:27:54.491Z,3.22
2022-10-05T17:31:15.939Z,3.13
2022-10-05T17:34:31.085Z,2.80
2022-10-05T17:37:39.882Z,2.78
2022-10-05T17:41:12.551Z,2.85
2022-10-05T17:44:29.170Z,3.35
2022-10-05T17:47:58.251Z,3.05
2022-10-05T17:51:31.953Z,2.85
2022-10-05T17:55:30.221Z,3.40
2022-10-05T17:59:03.420Z,2.70
2022-10-05T18:02:22.662Z,3.08
2022-10-05T18:05:32.703Z,3.38
2022-10-05T18:08:42.082Z,3.85
2022-10-05T18:12:18.348Z,2.90
2022-10-05T18:15:50.162Z,3.17
2022-10-05T18:18:58.987Z,3.10
2022-10-05T18:22:28.065Z,2.95
2022-10-05T18:25:46.892Z,3.20
2022-10-05T18:29:36.487Z,2.75
2022-10-05T18:33:30.495Z,3.05
2022-10-05T18:36:56.435Z,2.92
2022-10-05T18:40:22.525Z,3.67
2022-10-05T18:43:41.011Z,3.00
2022-10-05T18:46:54.180Z,3.00
2022-10-05T18:50:16.649Z,2.83
2022-10-05T18:53:36.210Z,2.33
2022-10-05T18:56:50.614Z,2.73
2022-10-05T19:00:03.960Z,2.80
2022-10-05T19:03:20.187Z,2.72
2022-10-05T19:06:30.960Z,2.50
2022-10-05T19:09:51.641Z,2.42
2022-10-05T19:13:20.706Z,2.15
2022-10-05T19:16:42.155Z,2.35
2022-10-05T19:20:14.018Z,2.47
2022-10-05T19:23:52.198Z,2.40
2022-10-05T19:27:08.040Z,2.33
2022-10-05T19:30:21.102Z,2.53
2022-10-05T19:33:45.457Z,2.22
2022-10-05T19:37:03.333Z,2.45
2022-10-05T19:40:21.364Z,3.30
2022-10-05T19:43:47.099Z,2.75
2022-10-05T19:47:00.565Z,2.60
2022-10-05T19:50:27.229Z,2.75
2022-10-05T19:53:40.543Z,3.15
2022-10-05T19:56:50.981Z,2.30
2022-10-05T20:00:01.802Z,2.47
2022-10-05T20:03:16.930Z,2.30
2022-10-05T20:06:26.743Z,2.25
2022-10-05T20:09:54.208Z,2.35
2022-10-05T20:13:03.676Z,2.45
2022-10-05T20:16:37.463Z,2.50
2022-10-05T20:20:02.989Z,2.50
2022-10-05T20:23:22.794Z,2.35
2022-10-05T20:26:58.785Z,1.98
2022-10-05T20:30:10.667Z,2.05
2022-10-05T20:33:19.484Z,2.22
2022-10-05T20:36:27.276Z,2.10
2022-10-05T20:39:33.643Z,2.20
2022-10-05T20:42:43.867Z,2.00
2022-10-05T20:45:49.797Z,1.77
2022-10-05T20:48:55.670Z,2.20
2022-10-05T20:52:06.677Z,2.42
2022-10-05T20:55:13.240Z,2.20
2022-10-05T20:58:21.033Z,2.10
2022-10-05T21:01:31.893Z,2.50
2022-10-05T21:04:47.390Z,2.20
2022-10-05T21:07:55.030Z,2.35
2022-10-05T21:11:01.930Z,2.35
2022-10-05T21:14:12.907Z,2.30
2022-10-05T21:17:20.251Z,2.78
2022-10-05T21:20:25.992Z,4.90
2022-10-05T21:23:35.215Z,2.55
2022-10-05T21:26:44.289Z,2.72
2022-10-05T21:30:05.352Z,2.47
2022-10-05T21:33:14.276Z,2.50
2022-10-05T21:36:29.974Z,2.20
2022-10-05T21:39:36.695Z,2.33
2022-10-05T21:42:41.561Z,2.60
2022-10-05T21:45:50.201Z,2.92
2022-10-05T21:48:58.439Z,2.45
2022-10-05T21:52:07.844Z,2.28
2022-10-05T21:55:13.946Z,1.77
2022-10-05T21:58:21.725Z,1.80
2022-10-05T22:01:29.331Z,2.50
2022-10-05T22:04:52.764Z,2.03
2022-10-05T22:08:00.204Z,1.70
2022-10-05T22:11:13.182Z,1.65
2022-10-05T22:14:22.764Z,1.80
2022-10-05T22:17:31.795Z,1.60
2022-10-05T22:20:39.527Z,1.60
2022-10-05T22:23:47.173Z,1.50
2022-10-05T22:26:54.679Z,1.75
2022-10-05T22:30:03.005Z,1.50
2022-10-05T22:33:13.242Z,2.00
2022-10-05T22:36:22.097Z,1.55
2022-10-05T22:39:28.947Z,1.48
2022-10-05T22:42:40.573Z,1.33
2022-10-05T22:45:46.568Z,1.70
2022-10-05T22:48:53.154Z,1.88
2022-10-05T22:52:02.601Z,1.52
2022-10-05T22:55:11.198Z,1.67
2022-10-05T22:58:17.558Z,1.98
2022-10-05T23:01:27.110Z,1.80
2022-10-05T23:04:34.731Z,1.60
2022-10-05T23:07:43.753Z,1.55
2022-10-05T23:10:50.074Z,1.73
2022-10-05T23:14:00.309Z,1.30
2022-10-05T23:17:08.857Z,1.20
2022-10-05T23:20:14.640Z,1.20
2022-10-05T23:23:25.412Z,0.90
2022-10-05T23:26:33.002Z,0.85
2022-10-05T23:29:40.123Z,0.93
2022-10-05T23:32:51.035Z,0.70
2022-10-05T23:36:02.514Z,0.60
2022-10-05T23:39:07.830Z,0.75
2022-10-05T23:42:20.236Z,0.73
2022-10-05T23:45:28.992Z,0.65
2022-10-05T23:48:37.937Z,0.80
2022-10-05T23:51:47.612Z,0.57
2022-10-05T23:54:55.296Z,0.68
2022-10-05T23:58:00.966Z,0.60
